sensor_id;sensor_type;location;lat;lon;timestamp;temperature;humidity
47368;DHT22;34646;47.964;7.982;2022-07-29T00:03:52;23.90;64.60
47368;DHT22;34646;47.964;7.982;2022-07-29T00:09:55;23.90;64.60
47368;DHT22;34646;47.964;7.982;2022-07-29T00:15:56;23.90;64.50
47368;DHT22;34646;47.964;7.982;2022-07-29T00:21:56;23.90;64.50
47368;DHT22;34646;47.964;7.982;2022-07-29T00:27:57;23.90;64.50
47368;DHT22;34646;47.964;7.982;2022-07-29T00:33:58;23.90;64.40
47368;DHT22;34646;47.964;7.982;2022-07-29T00:39:58;23.90;64.40
47368;DHT22;34646;47.964;7.982;2022-07-29T00:45:59;23.90;64.40
47368;DHT22;34646;47.964;7.982;2022-07-29T00:52:01;23.90;64.30
47368;DHT22;34646;47.964;7.982;2022-07-29T00:58:02;23.90;64.30
47368;DHT22;34646;47.964;7.982;2022-07-29T01:04:03;23.90;64.20
47368;DHT22;34646;47.964;7.982;2022-07-29T01:10:09;23.90;64.10
47368;DHT22;34646;47.964;7.982;2022-07-29T01:16:15;23.90;63.90
47368;DHT22;34646;47.964;7.982;2022-07-29T01:22:35;23.80;63.80
47368;DHT22;34646;47.964;7.982;2022-07-29T01:35:24;23.80;63.80
47368;DHT22;34646;47.964;7.982;2022-07-29T01:41:27;23.80;63.80
47368;DHT22;34646;47.964;7.982;2022-07-29T01:47:35;23.80;63.60
47368;DHT22;34646;47.964;7.982;2022-07-29T02:00:06;23.80;63.30
47368;DHT22;34646;47.964;7.982;2022-07-29T02:06:17;23.80;63.20
47368;DHT22;34646;47.964;7.982;2022-07-29T02:12:19;23.80;63.20
47368;DHT22;34646;47.964;7.982;2022-07-29T02:18:23;23.80;63.20
47368;DHT22;34646;47.964;7.982;2022-07-29T02:24:25;23.80;63.10
47368;DHT22;34646;47.964;7.982;2022-07-29T02:30:27;23.80;63.10
47368;DHT22;34646;47.964;7.982;2022-07-29T02:36:29;23.80;63.00
47368;DHT22;34646;47.964;7.982;2022-07-29T02:42:31;23.70;62.90
47368;DHT22;34646;47.964;7.982;2022-07-29T02:48:41;23.70;62.90
47368;DHT22;34646;47.964;7.982;2022-07-29T02:54:42;23.70;62.80
47368;DHT22;34646;47.964;7.982;2022-07-29T03:00:46;23.70;62.80
47368;DHT22;34646;47.964;7.982;2022-07-29T03:06:49;23.70;62.80
47368;DHT22;34646;47.964;7.982;2022-07-29T03:12:50;23.70;62.70
47368;DHT22;34646;47.964;7.982;2022-07-29T03:18:51;23.70;62.70
47368;DHT22;34646;47.964;7.982;2022-07-29T03:24:52;23.60;62.50
47368;DHT22;34646;47.964;7.982;2022-07-29T03:30:53;23.60;62.40
47368;DHT22;34646;47.964;7.982;2022-07-29T03:36:54;23.60;62.40
47368;DHT22;34646;47.964;7.982;2022-07-29T03:42:55;23.70;62.40
47368;DHT22;34646;47.964;7.982;2022-07-29T03:49:00;23.60;62.20
47368;DHT22;34646;47.964;7.982;2022-07-29T03:55:02;23.60;62.20
47368;DHT22;34646;47.964;7.982;2022-07-29T04:01:03;23.60;62.00
47368;DHT22;34646;47.964;7.982;2022-07-29T04:07:05;23.60;62.00
47368;DHT22;34646;47.964;7.982;2022-07-29T04:13:05;23.60;62.00
47368;DHT22;34646;47.964;7.982;2022-07-29T04:19:06;23.50;61.80
47368;DHT22;34646;47.964;7.982;2022-07-29T04:25:07;23.60;61.80
47368;DHT22;34646;47.964;7.982;2022-07-29T04:31:08;23.50;61.70
47368;DHT22;34646;47.964;7.982;2022-07-29T04:37:08;23.50;61.60
47368;DHT22;34646;47.964;7.982;2022-07-29T04:43:09;23.60;61.70
47368;DHT22;34646;47.964;7.982;2022-07-29T04:49:10;23.50;61.60
47368;DHT22;34646;47.964;7.982;2022-07-29T04:55:10;23.50;61.60
47368;DHT22;34646;47.964;7.982;2022-07-29T05:01:11;23.50;61.50
47368;DHT22;34646;47.964;7.982;2022-07-29T05:07:12;23.50;62.20
47368;DHT22;34646;47.964;7.982;2022-07-29T05:13:14;23.50;61.60
47368;DHT22;34646;47.964;7.982;2022-07-29T05:19:15;23.50;61.60
47368;DHT22;34646;47.964;7.982;2022-07-29T05:25:16;23.00;63.60
47368;DHT22;34646;47.964;7.982;2022-07-29T05:31:16;22.60;65.20
47368;DHT22;34646;47.964;7.982;2022-07-29T05:37:20;22.40;66.00
47368;DHT22;34646;47.964;7.982;2022-07-29T05:43:21;22.20;66.80
47368;DHT22;34646;47.964;7.982;2022-07-29T05:49:21;22.10;67.40
47368;DHT22;34646;47.964;7.982;2022-07-29T05:55:22;22.00;66.90
47368;DHT22;34646;47.964;7.982;2022-07-29T06:01:23;22.00;66.70
47368;DHT22;34646;47.964;7.982;2022-07-29T06:07:23;21.90;67.60
47368;DHT22;34646;47.964;7.982;2022-07-29T06:13:24;21.90;68.70
47368;DHT22;34646;47.964;7.982;2022-07-29T06:19:25;21.90;69.20
47368;DHT22;34646;47.964;7.982;2022-07-29T06:25:26;22.00;71.50
47368;DHT22;34646;47.964;7.982;2022-07-29T06:31:29;22.00;71.40
47368;DHT22;34646;47.964;7.982;2022-07-29T06:37:30;22.10;71.70
47368;DHT22;34646;47.964;7.982;2022-07-29T06:43:34;22.20;71.00
47368;DHT22;34646;47.964;7.982;2022-07-29T06:49:36;22.20;72.00
47368;DHT22;34646;47.964;7.982;2022-07-29T06:55:36;22.30;71.30
47368;DHT22;34646;47.964;7.982;2022-07-29T07:01:40;22.30;72.60
47368;DHT22;34646;47.964;7.982;2022-07-29T07:07:41;22.40;72.80
47368;DHT22;34646;47.964;7.982;2022-07-29T07:13:41;22.40;72.90
47368;DHT22;34646;47.964;7.982;2022-07-29T07:19:42;22.40;72.50
47368;DHT22;34646;47.964;7.982;2022-07-29T07:25:43;22.40;70.50
47368;DHT22;34646;47.964;7.982;2022-07-29T07:31:43;22.50;71.10
47368;DHT22;34646;47.964;7.982;2022-07-29T07:37:44;22.50;72.40
47368;DHT22;34646;47.964;7.982;2022-07-29T07:43:45;22.60;73.30
47368;DHT22;34646;47.964;7.982;2022-07-29T07:49:50;22.60;70.40
47368;DHT22;34646;47.964;7.982;2022-07-29T07:55:50;22.60;69.00
47368;DHT22;34646;47.964;7.982;2022-07-29T08:01:51;22.70;68.70
47368;DHT22;34646;47.964;7.982;2022-07-29T08:07:52;22.80;68.20
47368;DHT22;34646;47.964;7.982;2022-07-29T08:13:52;22.80;67.90
47368;DHT22;34646;47.964;7.982;2022-07-29T08:19:53;22.80;67.60
47368;DHT22;34646;47.964;7.982;2022-07-29T08:25:54;22.90;67.40
47368;DHT22;34646;47.964;7.982;2022-07-29T08:31:54;22.90;67.30
47368;DHT22;34646;47.964;7.982;2022-07-29T08:37:56;22.90;67.10
47368;DHT22;34646;47.964;7.982;2022-07-29T08:43:57;23.00;66.90
47368;DHT22;34646;47.964;7.982;2022-07-29T08:49:57;23.00;66.70
47368;DHT22;34646;47.964;7.982;2022-07-29T08:55:58;23.00;66.50
47368;DHT22;34646;47.964;7.982;2022-07-29T09:01:59;23.00;66.40
47368;DHT22;34646;47.964;7.982;2022-07-29T09:08:01;23.00;66.20
47368;DHT22;34646;47.964;7.982;2022-07-29T09:14:02;23.00;66.10
47368;DHT22;34646;47.964;7.982;2022-07-29T09:20:09;23.10;66.00
47368;DHT22;34646;47.964;7.982;2022-07-29T09:26:10;23.10;65.90
47368;DHT22;34646;47.964;7.982;2022-07-29T09:32:11;23.10;65.90
47368;DHT22;34646;47.964;7.982;2022-07-29T09:38:13;23.10;66.20
47368;DHT22;34646;47.964;7.982;2022-07-29T09:44:14;23.10;66.20
47368;DHT22;34646;47.964;7.982;2022-07-29T09:50:15;23.20;66.00
47368;DHT22;34646;47.964;7.982;2022-07-29T09:56:16;23.20;66.00
47368;DHT22;34646;47.964;7.982;2022-07-29T10:02:17;23.20;65.90
47368;DHT22;34646;47.964;7.982;2022-07-29T10:08:26;23.20;66.10
47368;DHT22;34646;47.964;7.982;2022-07-29T10:14:27;23.30;66.20
47368;DHT22;34646;47.964;7.982;2022-07-29T10:20:27;23.30;66.40
47368;DHT22;34646;47.964;7.982;2022-07-29T10:26:30;23.30;66.40
47368;DHT22;34646;47.964;7.982;2022-07-29T10:39:47;23.30;66.50
47368;DHT22;34646;47.964;7.982;2022-07-29T10:45:56;23.30;66.50
47368;DHT22;34646;47.964;7.982;2022-07-29T10:52:08;23.30;66.50
47368;DHT22;34646;47.964;7.982;2022-07-29T10:58:25;23.30;66.40
47368;DHT22;34646;47.964;7.982;2022-07-29T11:10:45;23.30;66.40
47368;DHT22;34646;47.964;7.982;2022-07-29T11:17:05;23.40;66.40
47368;DHT22;34646;47.964;7.982;2022-07-29T11:23:21;23.30;66.40
47368;DHT22;34646;47.964;7.982;2022-07-29T11:29:25;23.40;66.60
47368;DHT22;34646;47.964;7.982;2022-07-29T11:35:26;23.40;66.70
47368;DHT22;34646;47.964;7.982;2022-07-29T11:41:29;23.40;66.40
47368;DHT22;34646;47.964;7.982;2022-07-29T11:53:47;23.40;66.30
47368;DHT22;34646;47.964;7.982;2022-07-29T11:59:48;23.40;66.20
47368;DHT22;34646;47.964;7.982;2022-07-29T12:05:49;23.40;66.30
47368;DHT22;34646;47.964;7.982;2022-07-29T12:11:56;23.40;66.20
47368;DHT22;34646;47.964;7.982;2022-07-29T12:17:57;23.40;66.30
47368;DHT22;34646;47.964;7.982;2022-07-29T12:23:57;23.40;66.30
47368;DHT22;34646;47.964;7.982;2022-07-29T12:30:00;23.40;66.40
47368;DHT22;34646;47.964;7.982;2022-07-29T12:36:02;23.40;66.40
47368;DHT22;34646;47.964;7.982;2022-07-29T12:42:21;23.40;66.30
47368;DHT22;34646;47.964;7.982;2022-07-29T12:48:39;23.40;66.20
47368;DHT22;34646;47.964;7.982;2022-07-29T12:54:47;23.50;66.00
47368;DHT22;34646;47.964;7.982;2022-07-29T13:00:59;23.50;65.90
47368;DHT22;34646;47.964;7.982;2022-07-29T13:07:04;23.50;65.90
47368;DHT22;34646;47.964;7.982;2022-07-29T13:13:08;23.50;65.90
47368;DHT22;34646;47.964;7.982;2022-07-29T13:19:11;23.50;66.00
47368;DHT22;34646;47.964;7.982;2022-07-29T13:25:12;23.50;65.90
47368;DHT22;34646;47.964;7.982;2022-07-29T13:31:13;23.50;65.90
47368;DHT22;34646;47.964;7.982;2022-07-29T13:37:14;23.50;65.90
47368;DHT22;34646;47.964;7.982;2022-07-29T13:43:14;23.50;65.80
47368;DHT22;34646;47.964;7.982;2022-07-29T13:49:15;23.50;65.80
47368;DHT22;34646;47.964;7.982;2022-07-29T13:55:16;23.50;65.60
47368;DHT22;34646;47.964;7.982;2022-07-29T14:01:17;23.50;65.70
47368;DHT22;34646;47.964;7.982;2022-07-29T14:07:17;23.50;65.60
47368;DHT22;34646;47.964;7.982;2022-07-29T14:13:18;23.50;65.60
47368;DHT22;34646;47.964;7.982;2022-07-29T14:19:18;23.60;65.40
47368;DHT22;34646;47.964;7.982;2022-07-29T14:25:19;23.60;65.00
47368;DHT22;34646;47.964;7.982;2022-07-29T14:31:20;23.60;65.20
47368;DHT22;34646;47.964;7.982;2022-07-29T14:37:20;23.50;65.20
47368;DHT22;34646;47.964;7.982;2022-07-29T14:43:21;23.50;65.10
47368;DHT22;34646;47.964;7.982;2022-07-29T14:49:22;23.50;65.00
47368;DHT22;34646;47.964;7.982;2022-07-29T14:55:22;23.50;64.80
47368;DHT22;34646;47.964;7.982;2022-07-29T15:01:23;23.50;64.40
47368;DHT22;34646;47.964;7.982;2022-07-29T15:07:24;23.60;64.20
47368;DHT22;34646;47.964;7.982;2022-07-29T15:13:25;23.60;64.10
47368;DHT22;34646;47.964;7.982;2022-07-29T15:19:26;23.60;64.10
47368;DHT22;34646;47.964;7.982;2022-07-29T15:25:27;23.50;64.10
47368;DHT22;34646;47.964;7.982;2022-07-29T15:31:27;23.50;64.10
47368;DHT22;34646;47.964;7.982;2022-07-29T15:37:28;23.50;63.80
47368;DHT22;34646;47.964;7.982;2022-07-29T15:43:29;23.50;63.60
47368;DHT22;34646;47.964;7.982;2022-07-29T15:49:31;23.50;63.20
47368;DHT22;34646;47.964;7.982;2022-07-29T15:55:31;23.50;63.00
47368;DHT22;34646;47.964;7.982;2022-07-29T16:01:32;23.50;62.90
47368;DHT22;34646;47.964;7.982;2022-07-29T16:07:33;23.50;62.60
47368;DHT22;34646;47.964;7.982;2022-07-29T16:13:34;23.50;62.50
47368;DHT22;34646;47.964;7.982;2022-07-29T16:19:34;23.60;62.50
47368;DHT22;34646;47.964;7.982;2022-07-29T16:25:35;23.60;62.40
47368;DHT22;34646;47.964;7.982;2022-07-29T16:31:37;23.60;62.20
47368;DHT22;34646;47.964;7.982;2022-07-29T16:37:38;23.70;62.70
47368;DHT22;34646;47.964;7.982;2022-07-29T16:43:39;23.70;62.70
47368;DHT22;34646;47.964;7.982;2022-07-29T16:49:39;23.70;62.60
47368;DHT22;34646;47.964;7.982;2022-07-29T16:55:40;23.80;63.00
47368;DHT22;34646;47.964;7.982;2022-07-29T17:01:41;23.80;62.70
47368;DHT22;34646;47.964;7.982;2022-07-29T17:07:42;23.80;62.30
47368;DHT22;34646;47.964;7.982;2022-07-29T17:13:42;23.80;62.20
47368;DHT22;34646;47.964;7.982;2022-07-29T17:19:43;23.80;62.10
47368;DHT22;34646;47.964;7.982;2022-07-29T17:25:44;23.80;62.00
47368;DHT22;34646;47.964;7.982;2022-07-29T17:31:44;23.80;62.20
47368;DHT22;34646;47.964;7.982;2022-07-29T17:37:45;23.80;61.80
47368;DHT22;34646;47.964;7.982;2022-07-29T17:43:46;23.80;61.70
47368;DHT22;34646;47.964;7.982;2022-07-29T17:49:47;23.80;61.60
47368;DHT22;34646;47.964;7.982;2022-07-29T17:55:48;23.80;61.40
47368;DHT22;34646;47.964;7.982;2022-07-29T18:01:49;23.70;61.30
47368;DHT22;34646;47.964;7.982;2022-07-29T18:07:49;23.70;61.20
47368;DHT22;34646;47.964;7.982;2022-07-29T18:13:50;23.70;61.30
47368;DHT22;34646;47.964;7.982;2022-07-29T18:19:51;23.60;61.20
47368;DHT22;34646;47.964;7.982;2022-07-29T18:25:52;23.60;61.10
47368;DHT22;34646;47.964;7.982;2022-07-29T18:31:53;23.60;60.90
47368;DHT22;34646;47.964;7.982;2022-07-29T18:37:53;23.60;61.00
47368;DHT22;34646;47.964;7.982;2022-07-29T18:43:54;23.60;61.00
47368;DHT22;34646;47.964;7.982;2022-07-29T18:49:55;23.60;61.00
47368;DHT22;34646;47.964;7.982;2022-07-29T18:55:56;23.60;61.00
47368;DHT22;34646;47.964;7.982;2022-07-29T19:01:57;23.60;60.80
47368;DHT22;34646;47.964;7.982;2022-07-29T19:07:57;23.60;60.90
47368;DHT22;34646;47.964;7.982;2022-07-29T19:13:58;23.50;60.50
47368;DHT22;34646;47.964;7.982;2022-07-29T19:19:59;23.50;60.10
47368;DHT22;34646;47.964;7.982;2022-07-29T19:25:59;23.50;59.60
47368;DHT22;34646;47.964;7.982;2022-07-29T19:32:00;23.50;59.70
47368;DHT22;34646;47.964;7.982;2022-07-29T19:38:07;23.50;59.60
47368;DHT22;34646;47.964;7.982;2022-07-29T19:44:08;23.50;59.60
47368;DHT22;34646;47.964;7.982;2022-07-29T19:50:10;23.50;59.30
47368;DHT22;34646;47.964;7.982;2022-07-29T19:56:11;23.50;59.30
47368;DHT22;34646;47.964;7.982;2022-07-29T20:02:12;23.50;59.30
47368;DHT22;34646;47.964;7.982;2022-07-29T20:08:12;23.50;59.20
47368;DHT22;34646;47.964;7.982;2022-07-29T20:14:13;23.50;59.10
47368;DHT22;34646;47.964;7.982;2022-07-29T20:20:14;23.50;59.10
47368;DHT22;34646;47.964;7.982;2022-07-29T20:26:14;23.50;59.00
47368;DHT22;34646;47.964;7.982;2022-07-29T20:32:16;23.50;59.20
47368;DHT22;34646;47.964;7.982;2022-07-29T20:38:17;23.40;58.90
47368;DHT22;34646;47.964;7.982;2022-07-29T20:44:17;23.40;58.70
47368;DHT22;34646;47.964;7.982;2022-07-29T20:50:19;23.40;58.40
47368;DHT22;34646;47.964;7.982;2022-07-29T20:56:22;23.40;58.20
47368;DHT22;34646;47.964;7.982;2022-07-29T21:02:22;23.40;58.00
47368;DHT22;34646;47.964;7.982;2022-07-29T21:08:24;23.40;58.00
47368;DHT22;34646;47.964;7.982;2022-07-29T21:14:25;23.40;58.00
47368;DHT22;34646;47.964;7.982;2022-07-29T21:20:34;23.30;57.70
47368;DHT22;34646;47.964;7.982;2022-07-29T21:26:35;23.30;57.60
47368;DHT22;34646;47.964;7.982;2022-07-29T21:32:36;23.30;57.40
47368;DHT22;34646;47.964;7.982;2022-07-29T21:38:37;23.30;57.30
47368;DHT22;34646;47.964;7.982;2022-07-29T21:44:37;23.30;57.00
47368;DHT22;34646;47.964;7.982;2022-07-29T21:50:40;23.30;57.00
47368;DHT22;34646;47.964;7.982;2022-07-29T21:56:41;23.30;56.80
47368;DHT22;34646;47.964;7.982;2022-07-29T22:02:42;23.30;56.70
47368;DHT22;34646;47.964;7.982;2022-07-29T22:08:42;23.30;56.60
47368;DHT22;34646;47.964;7.982;2022-07-29T22:14:44;23.30;56.40
47368;DHT22;34646;47.964;7.982;2022-07-29T22:20:45;23.20;56.40
47368;DHT22;34646;47.964;7.982;2022-07-29T22:26:46;23.30;56.40
47368;DHT22;34646;47.964;7.982;2022-07-29T22:32:46;23.20;56.30
47368;DHT22;34646;47.964;7.982;2022-07-29T22:38:48;23.20;56.30
47368;DHT22;34646;47.964;7.982;2022-07-29T22:44:49;23.30;56.30
47368;DHT22;34646;47.964;7.982;2022-07-29T22:50:50;23.20;56.10
47368;DHT22;34646;47.964;7.982;2022-07-29T22:56:51;23.30;56.10
47368;DHT22;34646;47.964;7.982;2022-07-29T23:02:51;23.20;56.10
47368;DHT22;34646;47.964;7.982;2022-07-29T23:08:52;23.20;55.90
47368;DHT22;34646;47.964;7.982;2022-07-29T23:14:52;23.20;56.00
47368;DHT22;34646;47.964;7.982;2022-07-29T23:20:53;23.10;55.90
47368;DHT22;34646;47.964;7.982;2022-07-29T23:26:54;23.20;55.90
47368;DHT22;34646;47.964;7.982;2022-07-29T23:32:54;23.20;55.80
47368;DHT22;34646;47.964;7.982;2022-07-29T23:38:55;23.10;55.80
47368;DHT22;34646;47.964;7.982;2022-07-29T23:44:56;23.10;55.70
47368;DHT22;34646;47.964;7.982;2022-07-29T23:50:57;23.20;55.70
47368;DHT22;34646;47.964;7.982;2022-07-29T23:56:59;23.20;55.60
